Time;durP1;ratioP1;P1;durP2;ratioP2;P2;SDS_P1;SDS_P2;PMS_P1;PMS_P2;Temp;Humidity;BMP_temperature;BMP_pressure;BME280_temperature;BME280_humidity;BME280_pressure;Samples;Min_cycle;Max_cycle;Signal;HPM_P1;HPM_P2
2022/08/07 00:01:03;;;;;;;3.63;1.88;;;;;;;24.43;42.59;98807.63;5055460;28;20103;-48
2022/08/07 00:03:29;;;;;;;4.00;1.70;;;;;;;24.41;42.66;98810.59;5073381;28;20052;-49
2022/08/07 00:05:55;;;;;;;6.43;2.17;;;;;;;24.33;43.10;98813.91;5055607;28;20066;-49
2022/08/07 00:08:24;;;;;;;15.25;2.90;;;;;;;24.25;43.19;98811.88;5073254;28;20025;-47
2022/08/07 00:10:51;;;;;;;22.92;3.95;;;;;;;24.22;43.42;98821.28;5073214;28;20494;-47
2022/08/07 00:13:20;;;;;;;29.92;4.03;;;;;;;24.19;43.42;98813.81;5055208;28;20043;-46
2022/08/07 00:15:46;;;;;;;18.70;2.97;;;;;;;24.18;43.43;98816.78;5038492;28;20021;-47
2022/08/07 00:18:15;;;;;;;11.15;2.33;;;;;;;24.24;43.48;98816.41;5073074;28;20025;-49
2022/08/07 00:20:41;;;;;;;11.80;2.25;;;;;;;24.22;43.48;98818.59;5072930;28;20120;-48
2022/08/07 00:23:06;;;;;;;3.67;1.98;;;;;;;24.15;43.86;98818.16;5055045;28;20115;-48
2022/08/07 00:25:33;;;;;;;6.80;2.67;;;;;;;24.02;44.68;98822.31;5054946;28;20115;-49
2022/08/07 00:27:59;;;;;;;3.88;1.95;;;;;;;23.85;44.72;98819.28;5054723;28;20045;-48
2022/08/07 00:30:25;;;;;;;6.75;2.70;;;;;;;23.77;45.21;98817.22;5072802;28;20070;-49
2022/08/07 00:32:50;;;;;;;5.90;2.60;;;;;;;23.66;45.48;98825.34;5054798;28;20085;-49
2022/08/07 00:35:20;;;;;;;6.72;2.70;;;;;;;23.52;45.88;98824.38;5072622;28;20035;-48
2022/08/07 00:37:46;;;;;;;5.22;2.30;;;;;;;23.47;45.70;98829.81;5072752;28;20085;-49
2022/08/07 00:40:13;;;;;;;7.18;2.33;;;;;;;23.45;45.51;98832.75;5054626;28;20478;-48
2022/08/07 00:42:40;;;;;;;8.48;2.40;;;;;;;23.51;45.36;98830.84;5054670;28;20037;-49
2022/08/07 00:45:07;;;;;;;5.85;2.17;;;;;;;23.53;45.20;98826.00;5054578;28;20039;-48
2022/08/07 00:47:33;;;;;;;8.35;2.58;;;;;;;23.54;45.41;98822.22;5072393;28;20049;-49
2022/08/07 00:49:59;;;;;;;7.13;2.58;;;;;;;23.68;45.09;98820.50;5072465;28;20029;-49
2022/08/07 00:52:24;;;;;;;8.32;2.75;;;;;;;23.72;44.84;98818.03;5054411;28;20178;-48
2022/08/07 00:54:51;;;;;;;8.40;2.45;;;;;;;23.64;45.00;98822.16;5072300;28;20044;-49
2022/08/07 00:57:16;;;;;;;5.30;1.98;;;;;;;23.51;45.08;98817.44;5072318;28;20024;-48
2022/08/07 00:59:43;;;;;;;6.68;2.25;;;;;;;23.38;45.53;98815.41;5054318;28;20077;-47
2022/08/07 01:02:09;;;;;;;10.75;2.22;;;;;;;23.35;45.61;98821.34;5072224;28;20371;-49
2022/08/07 01:04:36;;;;;;;19.63;3.60;;;;;;;23.58;45.44;98820.56;5072213;28;20016;-48
2022/08/07 01:07:02;;;;;;;10.30;3.17;;;;;;;23.89;44.83;98815.75;5071263;28;20413;-49
2022/08/07 01:09:28;;;;;;;8.57;2.38;;;;;;;24.13;44.29;98820.31;5054219;28;20035;-48
2022/08/07 01:11:54;;;;;;;5.22;2.03;;;;;;;24.29;43.96;98824.41;5072116;28;20028;-48
2022/08/07 01:14:22;;;;;;;9.13;2.53;;;;;;;24.36;43.58;98826.72;5071968;28;20036;-49
2022/08/07 01:16:48;;;;;;;8.88;2.60;;;;;;;24.38;43.60;98821.88;5054106;28;20082;-49
2022/08/07 01:19:18;;;;;;;12.00;2.92;;;;;;;24.45;43.51;98816.97;5072036;28;20492;-48
2022/08/07 01:21:46;;;;;;;10.63;2.70;;;;;;;24.53;43.17;98828.97;5053978;28;20024;-49
2022/08/07 01:24:13;;;;;;;6.40;2.25;;;;;;;24.63;42.88;98831.53;5071939;28;20064;-48
2022/08/07 01:26:39;;;;;;;7.55;3.08;;;;;;;24.64;42.59;98829.63;5053885;28;20116;-49
2022/08/07 01:29:05;;;;;;;12.05;2.58;;;;;;;24.53;42.98;98823.63;5038922;28;20137;-48
2022/08/07 01:31:30;;;;;;;8.65;2.30;;;;;;;24.48;42.97;98832.47;5033939;28;20025;-47
2022/08/07 01:33:58;;;;;;;12.70;3.50;;;;;;;24.43;42.97;98839.81;5051787;28;20025;-49
2022/08/07 01:36:27;;;;;;;8.65;2.92;;;;;;;24.44;43.17;98833.34;5051680;28;20457;-49
2022/08/07 01:38:53;;;;;;;7.03;2.10;;;;;;;24.52;42.89;98836.22;5051603;28;20025;-49
2022/08/07 01:41:20;;;;;;;29.13;4.53;;;;;;;24.63;42.91;98838.75;5033778;28;20025;-49
2022/08/07 01:43:48;;;;;;;11.45;3.30;;;;;;;24.67;42.56;98835.22;5033834;28;20394;-49
2022/08/07 01:46:15;;;;;;;13.05;3.45;;;;;;;24.68;42.48;98838.69;5033908;28;20029;-49
2022/08/07 01:48:42;;;;;;;9.48;2.78;;;;;;;24.69;42.32;98833.06;5051608;28;20028;-49
2022/08/07 01:51:28;;;;;;;13.40;3.33;;;;;;;24.70;42.28;98829.25;5051532;28;20024;-49
2022/08/07 01:53:57;;;;;;;13.55;3.47;;;;;;;24.68;42.40;98828.75;5033693;28;20041;-49
2022/08/07 01:56:50;;;;;;;7.93;1.92;;;;;;;24.74;42.24;98828.69;5051701;28;20063;-49
2022/08/07 01:59:52;;;;;;;11.32;2.47;;;;;;;24.71;42.02;98822.03;5033638;28;20025;-48
2022/08/07 02:02:30;;;;;;;12.68;2.65;;;;;;;24.64;42.16;98822.38;5031044;28;20048;-47
2022/08/07 02:05:01;;;;;;;10.70;2.40;;;;;;;24.62;42.60;98826.44;5030309;28;20028;-49
2022/08/07 02:07:31;;;;;;;12.57;3.25;;;;;;;24.59;42.11;98824.31;5048811;28;20029;-49
2022/08/07 02:09:59;;;;;;;12.18;3.17;;;;;;;24.55;41.97;98825.97;5051802;28;20099;-49
2022/08/07 02:12:30;;;;;;;5.75;2.17;;;;;;;24.48;42.22;98821.75;5033461;28;20441;-48
2022/08/07 02:14:57;;;;;;;7.32;2.40;;;;;;;24.40;42.39;98825.06;5051401;28;20029;-48
2022/08/07 02:17:25;;;;;;;6.35;2.20;;;;;;;24.33;42.71;98824.66;5051374;28;20032;-49
2022/08/07 02:19:53;;;;;;;7.82;2.80;;;;;;;24.34;42.61;98820.88;5055564;28;20756;-48
2022/08/07 02:22:22;;;;;;;8.43;2.00;;;;;;;24.34;42.64;98815.50;5037322;28;20021;-49
2022/08/07 02:24:51;;;;;;;9.60;2.40;;;;;;;24.28;42.72;98828.16;5055250;28;20104;-49
2022/08/07 02:27:20;;;;;;;9.43;2.67;;;;;;;24.25;42.97;98819.91;5037160;28;20025;-51
2022/08/07 02:29:48;;;;;;;16.67;2.80;;;;;;;24.27;43.02;98826.59;5095299;28;20424;-49
2022/08/07 02:32:16;;;;;;;9.63;2.42;;;;;;;24.27;42.61;98823.91;5077139;28;20030;-49
2022/08/07 02:34:44;;;;;;;7.50;2.10;;;;;;;24.20;42.91;98831.47;5077012;28;20028;-49
2022/08/07 02:37:11;;;;;;;7.53;2.08;;;;;;;24.11;43.26;98834.00;5095276;28;20012;-49
2022/08/07 02:39:43;;;;;;;11.32;2.30;;;;;;;24.20;43.20;98828.00;5095347;28;20095;-48
2022/08/07 02:42:10;;;;;;;5.18;2.75;;;;;;;24.30;42.78;98830.56;5077101;28;20369;-48
2022/08/07 02:44:38;;;;;;;17.35;3.80;;;;;;;24.23;42.90;98832.81;5095220;28;20473;-48
2022/08/07 02:47:05;;;;;;;9.05;2.67;;;;;;;24.15;42.87;98830.75;5076825;28;20119;-49
2022/08/07 02:49:32;;;;;;;10.40;3.05;;;;;;;24.03;43.25;98829.28;5095061;28;20020;-48
2022/08/07 02:52:02;;;;;;;14.18;2.65;;;;;;;23.94;43.37;98820.25;5094991;28;20024;-48
2022/08/07 02:54:30;;;;;;;8.77;2.47;;;;;;;23.90;43.70;98829.94;5094904;28;20077;-49
2022/08/07 02:57:00;;;;;;;20.13;3.45;;;;;;;23.87;43.80;98825.97;5076666;28;20020;-48
2022/08/07 02:59:28;;;;;;;14.80;3.45;;;;;;;23.86;43.71;98821.66;5076690;28;20107;-49
2022/08/07 03:01:55;;;;;;;12.10;2.85;;;;;;;23.86;43.73;98820.88;5076611;28;20117;-49
2022/08/07 03:04:23;;;;;;;11.63;2.70;;;;;;;23.78;43.83;98821.50;5094768;28;20066;-48
2022/08/07 03:06:50;;;;;;;10.82;2.45;;;;;;;23.72;44.10;98812.69;5095013;28;20027;-48
2022/08/07 03:09:18;;;;;;;8.32;2.38;;;;;;;23.65;44.18;98823.75;5094633;28;20031;-48
2022/08/07 03:11:44;;;;;;;4.68;1.92;;;;;;;23.54;44.39;98819.53;5094637;28;20051;-48
2022/08/07 03:14:14;;;;;;;6.60;2.15;;;;;;;23.33;44.49;98819.72;5094576;28;20523;-49
2022/08/07 03:16:41;;;;;;;16.63;3.40;;;;;;;23.31;44.78;98826.47;5094471;28;20209;-49
2022/08/07 03:19:08;;;;;;;8.88;2.10;;;;;;;23.28;44.86;98825.16;5094843;28;20023;-48
2022/08/07 03:21:34;;;;;;;10.25;2.90;;;;;;;23.15;45.11;98827.66;5076175;28;20032;-48
2022/08/07 03:24:00;;;;;;;24.77;4.30;;;;;;;23.12;45.48;98821.00;5076234;28;20097;-49
2022/08/07 03:26:30;;;;;;;10.30;2.35;;;;;;;23.28;45.43;98817.13;5076136;28;20028;-48
2022/08/07 03:28:57;;;;;;;12.38;2.13;;;;;;;23.36;45.02;98820.25;5045334;28;20079;-49
2022/08/07 03:31:25;;;;;;;25.48;4.43;;;;;;;23.27;45.13;98817.38;5073485;28;20096;-49
2022/08/07 03:33:59;;;;;;;24.38;3.88;;;;;;;23.27;45.24;98820.06;5074052;28;20020;-48
2022/08/07 03:36:29;;;;;;;7.95;2.72;;;;;;;23.30;45.40;98825.66;5056399;28;20052;-49
2022/08/07 03:39:06;;;;;;;6.70;2.53;;;;;;;23.31;45.58;98819.22;5055864;28;20039;-49
2022/08/07 03:41:33;;;;;;;138.82;66.65;;;;;;;23.32;45.20;98825.38;5055905;28;20032;-49
2022/08/07 03:44:00;;;;;;;107.30;20.52;;;;;;;23.32;45.27;98823.50;5039253;28;20028;-49
2022/08/07 03:46:27;;;;;;;23.35;4.97;;;;;;;23.32;45.43;98828.88;5055661;28;20063;-48
2022/08/07 03:48:53;;;;;;;19.23;3.92;;;;;;;23.32;45.70;98818.16;5073702;28;20020;-49
2022/08/07 03:51:20;;;;;;;14.15;3.05;;;;;;;23.38;45.44;98820.78;5073688;28;20030;-48
2022/08/07 03:53:47;;;;;;;14.27;3.20;;;;;;;23.44;45.03;98819.66;5055634;28;20025;-49
2022/08/07 03:56:18;;;;;;;16.52;3.13;;;;;;;23.49;45.01;98819.63;5073448;28;20475;-48
2022/08/07 03:58:44;;;;;;;12.77;2.80;;;;;;;23.52;44.40;98822.53;5073640;28;20497;-48
2022/08/07 04:01:10;;;;;;;10.00;2.50;;;;;;;23.54;44.60;98830.25;5073446;28;20025;-49
2022/08/07 04:03:36;;;;;;;8.13;2.70;;;;;;;23.50;44.64;98830.06;5073374;28;20112;-48
2022/08/07 04:06:02;;;;;;;11.93;3.30;;;;;;;23.42;44.72;98830.66;5055415;28;20103;-48
2022/08/07 04:08:28;;;;;;;15.55;3.00;;;;;;;23.32;44.67;98834.22;5055428;28;20046;-48
2022/08/07 04:10:55;;;;;;;26.38;4.10;;;;;;;23.26;45.21;98834.53;5073248;28;20091;-48
2022/08/07 04:13:25;;;;;;;15.27;2.90;;;;;;;23.23;45.15;98835.09;5073277;28;20099;-48
2022/08/07 04:15:50;;;;;;;8.32;2.20;;;;;;;;;;5055475;28;20060;-48
2022/08/07 04:18:16;;;;;;;17.42;2.85;;;;;;;23.20;44.89;98836.47;5055189;28;20528;-48
2022/08/07 04:20:42;;;;;;;20.10;3.08;;;;;;;23.32;44.81;98839.56;5073049;28;20027;-48
2022/08/07 04:23:09;;;;;;;18.70;3.60;;;;;;;23.40;44.48;98842.72;5055076;28;20025;-49
2022/08/07 04:25:39;;;;;;;26.17;4.32;;;;;;;23.37;44.58;98833.38;5072940;28;20039;-49
2022/08/07 04:28:06;;;;;;;13.57;3.17;;;;;;;23.34;44.43;98844.63;5072718;28;20573;-48
2022/08/07 04:30:34;;;;;;;14.27;3.17;;;;;;;23.24;44.44;98840.19;5072816;28;20044;-49
2022/08/07 04:33:05;;;;;;;8.80;2.38;;;;;;;23.19;44.40;98840.19;5072756;28;20040;-48
2022/08/07 04:35:31;;;;;;;11.90;3.45;;;;;;;23.14;44.62;98837.59;5054750;28;20107;-49
2022/08/07 04:37:57;;;;;;;14.82;2.92;;;;;;;23.11;44.58;98844.28;5038203;28;20028;-48
2022/08/07 04:40:22;;;;;;;8.10;2.10;;;;;;;23.03;44.43;98846.75;5072476;28;20210;-48
2022/08/07 04:42:48;;;;;;;9.52;2.95;;;;;;;23.02;44.56;98851.31;5072620;28;20055;-49
2022/08/07 04:45:14;;;;;;;12.70;2.65;;;;;;;23.09;44.43;98851.78;5054581;28;20111;-48
2022/08/07 04:48:03;;;;;;;9.98;2.53;;;;;;;23.16;43.63;98853.34;5054578;28;20024;-48
2022/08/07 04:50:41;;;;;;;9.30;3.13;;;;;;;23.20;43.32;98852.53;5072550;28;20021;-47
2022/08/07 04:53:28;;;;;;;16.48;3.50;;;;;;;23.21;43.67;98861.34;5054844;28;20158;-48
2022/08/07 04:56:00;;;;;;;9.55;2.40;;;;;;;23.21;43.00;98864.03;5072337;28;20024;-49
2022/08/07 04:58:58;;;;;;;17.48;2.47;;;;;;;23.52;42.68;98865.41;5072428;28;20028;-49
2022/08/07 05:01:38;;;;;;;19.40;3.85;;;;;;;24.06;41.46;98866.22;5072319;28;20021;-48
2022/08/07 05:04:21;;;;;;;17.33;3.22;;;;;;;24.63;40.04;98868.28;5054330;28;20037;-49
2022/08/07 05:07:05;;;;;;;17.85;3.67;;;;;;;25.25;38.75;98865.53;5072213;28;20031;-48
2022/08/07 05:09:39;;;;;;;23.08;9.50;;;;;;;25.65;37.90;98866.75;5054139;28;20514;-48
2022/08/07 05:12:09;;;;;;;10.85;2.80;;;;;;;25.96;37.46;98874.34;5072072;28;20103;-48
2022/08/07 05:14:42;;;;;;;23.17;3.45;;;;;;;26.27;36.42;98869.16;5071993;28;20506;-49
2022/08/07 05:17:11;;;;;;;13.95;2.60;;;;;;;26.48;36.07;98879.50;5072040;28;20025;-49
2022/08/07 05:19:42;;;;;;;11.93;2.85;;;;;;;26.67;35.85;98876.72;5072032;28;20021;-49
2022/08/07 05:22:10;;;;;;;15.63;3.03;;;;;;;26.86;34.98;98872.00;5072035;28;20465;-48
2022/08/07 05:24:38;;;;;;;7.43;2.22;;;;;;;26.98;34.90;98867.97;5071942;28;20021;-48
2022/08/07 05:27:07;;;;;;;7.53;2.13;;;;;;;27.12;34.38;98876.00;5053932;28;20020;-48
2022/08/07 05:29:38;;;;;;;7.20;2.20;;;;;;;27.09;34.32;98885.50;5053778;28;20048;-48
2022/08/07 05:32:07;;;;;;;11.20;3.28;;;;;;;27.24;34.18;98876.28;5071886;28;20056;-50
2022/08/07 05:34:34;;;;;;;3.53;1.70;;;;;;;27.42;33.94;98869.91;5071772;28;20021;-49
2022/08/07 05:37:02;;;;;;;18.27;2.97;;;;;;;27.78;33.51;98882.50;5071783;28;20094;-46
2022/08/07 05:39:28;;;;;;;5.95;2.33;;;;;;;28.18;32.63;98874.44;5071784;28;20052;-46
2022/08/07 05:41:54;;;;;;;7.13;2.35;;;;;;;28.73;31.37;98878.56;5053741;28;20528;-47
2022/08/07 05:44:21;;;;;;;21.17;3.35;;;;;;;29.31;30.63;98881.16;5053743;28;20028;-47
2022/08/07 05:46:50;;;;;;;7.60;2.45;;;;;;;29.63;30.50;98877.91;5053614;28;20082;-47
2022/08/07 05:49:16;;;;;;;9.15;3.45;;;;;;;29.74;29.90;98885.72;5071701;28;20535;-46
2022/08/07 05:51:43;;;;;;;4.82;1.73;;;;;;;30.20;28.93;98884.09;5071640;28;20016;-48
2022/08/07 05:54:10;;;;;;;7.70;2.30;;;;;;;30.52;28.68;98879.97;5077625;28;20032;-47
2022/08/07 05:56:38;;;;;;;5.78;1.65;;;;;;;30.88;28.26;98892.19;5060153;28;20111;-46
2022/08/07 05:59:08;;;;;;;11.32;1.88;;;;;;;31.35;27.73;98893.88;5060469;28;20032;-47
2022/08/07 06:01:38;;;;;;;18.23;5.70;;;;;;;31.89;27.15;98882.97;5078263;28;20505;-48
2022/08/07 06:04:05;;;;;;;6.93;2.03;;;;;;;31.96;26.40;98885.13;5060201;28;20494;-46
2022/08/07 06:06:33;;;;;;;2.95;1.42;;;;;;;32.15;26.11;98890.03;5060226;28;20068;-47
2022/08/07 06:08:59;;;;;;;4.22;1.90;;;;;;;31.88;26.78;98899.59;5060151;28;20101;-47
2022/08/07 06:11:25;;;;;;;10.23;2.42;;;;;;;31.88;26.57;98894.19;5060425;28;20025;-47
2022/08/07 06:13:51;;;;;;;6.43;2.30;;;;;;;32.34;26.42;98898.41;5060099;28;20032;-47
2022/08/07 06:16:19;;;;;;;9.65;2.15;;;;;;;32.70;26.00;98894.09;5078018;28;20397;-46
2022/08/07 06:18:46;;;;;;;9.07;2.40;;;;;;;32.98;25.28;98901.50;5078096;28;20145;-47
2022/08/07 06:21:16;;;;;;;11.23;2.22;;;;;;;33.06;25.30;98886.97;5060089;28;20024;-47
2022/08/07 06:23:42;;;;;;;12.25;2.53;;;;;;;33.72;24.46;98896.56;5060013;28;20032;-47
2022/08/07 06:26:12;;;;;;;7.70;2.20;;;;;;;34.45;23.79;98901.84;5078087;28;20035;-47
2022/08/07 06:28:55;;;;;;;2.67;1.63;;;;;;;34.51;22.99;98897.69;5077875;28;20519;-46
2022/08/07 06:31:21;;;;;;;6.93;1.50;;;;;;;34.40;23.02;98902.91;5077926;28;20103;-47
2022/08/07 06:33:47;;;;;;;2.28;1.58;;;;;;;34.14;23.19;98889.84;5060036;28;20052;-47
2022/08/07 06:36:13;;;;;;;5.22;1.55;;;;;;;33.90;24.14;98902.47;5059893;28;20103;-48
2022/08/07 06:38:41;;;;;;;6.80;2.35;;;;;;;34.32;23.54;98901.16;5059916;28;20179;-47
2022/08/07 06:41:30;;;;;;;12.68;4.13;;;;;;;34.65;23.27;98903.47;5059923;28;20490;-47
2022/08/07 06:43:57;;;;;;;8.88;2.00;;;;;;;34.73;22.93;98902.50;5077954;28;20055;-47
2022/08/07 06:46:23;;;;;;;11.55;2.20;;;;;;;35.10;22.65;98902.09;5077837;28;20020;-47
2022/08/07 06:48:49;;;;;;;10.23;2.03;;;;;;;35.44;22.08;98905.13;5077788;28;20516;-48
2022/08/07 06:51:19;;;;;;;9.30;2.20;;;;;;;35.69;21.90;98900.13;5059773;28;20429;-48
2022/08/07 06:53:46;;;;;;;11.38;2.55;;;;;;;35.78;21.83;98895.22;5077758;28;20028;-47
2022/08/07 06:56:13;;;;;;;8.15;2.03;;;;;;;35.84;21.85;98901.19;5077701;28;20024;-47
2022/08/07 06:58:40;;;;;;;14.43;2.45;;;;;;;35.89;21.77;98895.41;5077705;28;20031;-47
2022/08/07 07:01:08;;;;;;;7.72;1.83;;;;;;;36.00;21.39;98885.44;5077739;28;20025;-48
2022/08/07 07:03:38;;;;;;;2.42;1.35;;;;;;;35.78;21.77;98897.19;5077388;28;20024;-49
2022/08/07 07:06:05;;;;;;;3.35;1.60;;;;;;;35.67;22.09;98890.72;5075095;28;20032;-49
2022/08/07 07:08:31;;;;;;;8.85;1.92;;;;;;;35.71;21.80;98897.81;5074499;28;20024;-49
2022/08/07 07:11:02;;;;;;;4.13;1.50;;;;;;;36.02;21.62;98889.75;5056433;28;20111;-47
2022/08/07 07:13:35;;;;;;;5.03;1.50;;;;;;;36.42;21.55;98891.16;5074380;28;20021;-47
2022/08/07 07:16:06;;;;;;;13.95;1.92;;;;;;;36.57;20.89;98896.47;5074325;28;20032;-47
2022/08/07 07:18:39;;;;;;;7.95;1.90;;;;;;;36.29;21.43;98894.09;5074537;28;20040;-47
2022/08/07 07:21:16;;;;;;;5.90;1.92;;;;;;;36.37;21.35;98898.53;5074343;28;20029;-49
2022/08/07 07:23:42;;;;;;;7.28;1.67;;;;;;;36.31;21.13;98893.75;5056259;28;20044;-49
2022/08/07 07:26:13;;;;;;;8.77;1.88;;;;;;;35.65;21.51;98887.53;5056186;28;20033;-48
2022/08/07 07:28:45;;;;;;;8.48;2.20;;;;;;;35.45;22.04;98890.31;5073916;28;20048;-49
2022/08/07 07:31:30;;;;;;;6.22;1.70;;;;;;;35.91;21.96;98887.63;5074044;28;20040;-49
2022/08/07 07:34:01;;;;;;;7.95;2.00;;;;;;;36.36;21.52;98883.28;5056357;28;20098;-49
2022/08/07 07:36:27;;;;;;;5.03;1.70;;;;;;;36.83;20.76;98883.16;5056044;28;20024;-50
2022/08/07 07:38:53;;;;;;;6.15;2.13;;;;;;;37.57;20.12;98879.69;5055925;28;20086;-49
2022/08/07 07:41:21;;;;;;;7.45;1.90;;;;;;;38.20;19.35;98879.84;5055877;28;20013;-49
2022/08/07 07:43:51;;;;;;;4.65;1.83;;;;;;;38.40;19.26;98883.91;5056089;28;20441;-49
2022/08/07 07:46:17;;;;;;;5.75;1.85;;;;;;;38.76;18.70;98879.41;5056077;28;20064;-50
2022/08/07 07:48:47;;;;;;;7.53;2.47;;;;;;;38.92;18.72;98870.06;5073782;28;20025;-49
2022/08/07 07:51:14;;;;;;;3.15;1.45;;;;;;;39.33;18.10;98869.81;5073711;28;20028;-49
2022/08/07 07:53:44;;;;;;;7.22;2.30;;;;;;;39.76;18.07;98875.34;5073670;28;20106;-49
2022/08/07 07:56:12;;;;;;;8.88;2.15;;;;;;;39.94;17.82;98870.69;5073837;28;20021;-49
2022/08/07 07:58:40;;;;;;;5.43;1.80;;;;;;;39.84;17.78;98865.94;5073520;28;20035;-49
2022/08/07 08:01:09;;;;;;;10.93;2.08;;;;;;;39.96;17.64;98870.28;5055553;28;20029;-49
2022/08/07 08:03:37;;;;;;;4.10;1.88;;;;;;;39.98;17.60;98861.66;5039330;28;20032;-49
2022/08/07 08:06:05;;;;;;;9.57;2.13;;;;;;;39.83;17.62;98861.63;5055413;28;20436;-49
2022/08/07 08:08:32;;;;;;;8.30;2.15;;;;;;;39.29;18.21;98861.56;5073650;28;20397;-49
2022/08/07 08:10:59;;;;;;;5.28;1.63;;;;;;;39.09;18.28;98861.13;5055617;28;20458;-49
2022/08/07 08:13:28;;;;;;;14.90;3.50;;;;;;;39.04;18.61;98858.75;5055276;28;20028;-49
2022/08/07 08:15:56;;;;;;;9.50;2.05;;;;;;;39.10;18.54;98854.47;5072585;28;20367;-50
2022/08/07 08:18:24;;;;;;;12.73;3.10;;;;;;;39.29;18.39;98845.09;5055139;28;20028;-49
2022/08/07 08:20:51;;;;;;;6.10;2.03;;;;;;;39.42;18.32;98856.53;5055116;28;20439;-48
2022/08/07 08:28:53;;;;;;;6.55;2.13;;;;;;;39.14;18.52;98860.75;5072913;28;20130;-48
2022/08/07 08:31:27;;;;;;;7.05;1.77;;;;;;;38.72;18.75;98856.66;5073412;28;20025;-49
2022/08/07 08:33:55;;;;;;;6.13;2.20;;;;;;;38.72;18.68;98850.41;5054904;28;20084;-49
2022/08/07 08:36:25;;;;;;;7.10;1.90;;;;;;;38.94;18.91;98857.53;5054736;28;20024;-49
2022/08/07 08:38:53;;;;;;;7.57;2.08;;;;;;;39.61;17.87;98857.31;5072721;28;20051;-48
2022/08/07 08:41:42;;;;;;;5.80;1.90;;;;;;;40.16;17.58;98853.38;5072729;28;20023;-49
2022/08/07 08:44:35;;;;;;;9.50;2.08;;;;;;;40.41;17.78;98845.06;5072749;28;20039;-48
2022/08/07 08:47:47;;;;;;;14.68;2.78;;;;;;;40.87;17.14;98847.69;5071700;28;20098;-48
2022/08/07 08:50:31;;;;;;;9.00;2.40;;;;;;;41.37;16.70;98841.09;5010549;28;20516;-48
2022/08/07 08:53:25;;;;;;;6.15;2.20;;;;;;;41.51;16.54;98843.78;5010731;28;20594;-48
2022/08/07 08:55:57;;;;;;;5.43;1.90;;;;;;;40.94;16.93;98835.84;5010715;28;20119;-48
2022/08/07 08:58:31;;;;;;;7.25;1.80;;;;;;;40.50;17.30;98835.22;5010602;28;20050;-48
2022/08/07 09:01:10;;;;;;;7.30;2.10;;;;;;;40.91;17.11;98836.63;5010462;28;20492;-47
2022/08/07 09:04:11;;;;;;;4.63;1.70;;;;;;;41.34;16.69;98832.88;5010467;28;20112;-48
2022/08/07 09:07:33;;;;;;;16.23;2.20;;;;;;;41.21;16.72;98824.31;5009027;28;20042;-47
2022/08/07 09:10:10;;;;;;;7.00;1.90;;;;;;;41.02;16.89;98822.84;4990712;28;20171;-49
2022/08/07 09:12:46;;;;;;;4.22;1.60;;;;;;;41.16;16.84;98828.25;4990689;28;20512;-51
2022/08/07 09:15:31;;;;;;;8.57;1.90;;;;;;;41.61;16.43;98820.09;4990534;28;20122;-51
2022/08/07 09:18:15;;;;;;;8.93;2.20;;;;;;;42.11;16.30;98827.13;4990626;28;20039;-52
2022/08/07 09:21:05;;;;;;;7.40;1.88;;;;;;;42.77;15.91;98825.97;4990575;28;20175;-52
2022/08/07 09:23:54;;;;;;;2.53;1.63;;;;;;;43.12;15.68;98834.97;4997937;28;20048;-51
2022/08/07 09:26:32;;;;;;;8.10;2.28;;;;;;;43.22;15.56;98828.50;5013324;28;20036;-52
2022/08/07 09:29:07;;;;;;;12.50;2.60;;;;;;;42.72;15.97;98826.44;5028729;28;20041;-52
2022/08/07 09:31:44;;;;;;;4.57;1.85;;;;;;;42.30;15.96;98826.53;5029783;28;20120;-52
2022/08/07 09:34:24;;;;;;;2.85;1.77;;;;;;;42.46;15.77;98831.50;5029778;28;20083;-52
2022/08/07 09:37:03;;;;;;;3.85;2.00;;;;;;;41.97;16.07;98824.50;5029626;28;20040;-52
2022/08/07 09:40:03;;;;;;;5.63;1.70;;;;;;;42.68;15.74;98828.44;5029637;28;20045;-51
2022/08/07 09:42:44;;;;;;;5.70;1.73;;;;;;;43.27;14.71;98843.88;5071974;28;20036;-51
2022/08/07 09:45:13;;;;;;;5.60;1.55;;;;;;;43.43;14.74;98838.50;5071847;28;20056;-51
2022/08/07 09:47:58;;;;;;;4.35;1.60;;;;;;;43.15;15.21;98834.16;5053792;28;20024;-50
2022/08/07 09:50:30;;;;;;;4.70;1.80;;;;;;;42.88;15.43;98832.19;5071649;28;20115;-49
2022/08/07 09:53:01;;;;;;;5.32;1.90;;;;;;;43.18;15.29;98827.00;5053714;28;20025;-51
2022/08/07 09:56:04;;;;;;;4.75;1.90;;;;;;;43.38;15.02;98822.38;5071623;28;20039;-53
2022/08/07 09:59:00;;;;;;;6.13;1.85;;;;;;;43.32;15.03;98834.31;5071630;28;20086;-51
2022/08/07 10:02:19;;;;;;;6.18;1.73;;;;;;;43.43;14.71;98818.38;5071640;28;20032;-51
2022/08/07 10:05:20;;;;;;;5.57;1.83;;;;;;;43.31;14.65;98830.78;5071585;28;20036;-52
2022/08/07 10:08:01;;;;;;;5.45;1.88;;;;;;;43.11;15.18;98829.88;5053874;28;20106;-52
2022/08/07 10:10:39;;;;;;;7.18;2.20;;;;;;;42.96;15.21;98819.03;5053525;28;20107;-51
2022/08/07 10:13:20;;;;;;;9.43;2.90;;;;;;;42.48;15.95;98806.22;5071548;28;20025;-51
2022/08/07 10:16:12;;;;;;;3.95;1.60;;;;;;;41.82;16.08;98810.06;5071403;28;20025;-52
2022/08/07 10:18:40;;;;;;;8.00;1.95;;;;;;;42.05;16.28;98815.75;5053459;28;20406;-51
2022/08/07 10:21:28;;;;;;;4.82;1.92;;;;;;;42.50;15.84;98807.41;5071408;28;20020;-50
2022/08/07 10:24:37;;;;;;;2.22;1.58;;;;;;;42.82;15.27;98800.69;5071368;28;20028;-51
2022/08/07 10:27:25;;;;;;;2.67;1.52;;;;;;;43.00;15.25;98805.19;5071386;28;20432;-50
2022/08/07 10:30:02;;;;;;;6.18;1.50;;;;;;;42.98;15.34;98800.06;5071363;28;20049;-51
2022/08/07 10:32:56;;;;;;;4.40;1.48;;;;;;;42.72;15.22;98789.75;5071291;28;20063;-51
2022/08/07 10:35:45;;;;;;;5.28;1.60;;;;;;;41.92;16.02;98789.88;5053197;28;20024;-50
2022/08/07 10:38:29;;;;;;;14.75;8.35;;;;;;;41.89;16.28;98779.66;5071295;28;20406;-50
2022/08/07 10:41:16;;;;;;;6.13;2.50;;;;;;;41.95;16.14;98788.28;5074972;28;20025;-51
2022/08/07 10:43:55;;;;;;;5.38;1.92;;;;;;;42.24;15.83;98781.28;5075018;28;20078;-51
2022/08/07 10:46:28;;;;;;;3.97;1.63;;;;;;;42.17;15.72;98777.81;5075081;28;20033;-53
2022/08/07 10:49:13;;;;;;;5.15;2.30;;;;;;;42.29;15.67;98769.78;5075112;28;20025;-52
2022/08/07 10:51:56;;;;;;;4.63;1.60;;;;;;;42.37;16.00;98769.69;5074879;28;20028;-51
2022/08/07 10:54:36;;;;;;;2.43;1.57;;;;;;;42.43;15.85;98766.06;5056906;28;20035;-52
2022/08/07 10:57:15;;;;;;;8.80;1.80;;;;;;;42.52;15.54;98771.09;5074687;28;20060;-52
2022/08/07 10:59:57;;;;;;;3.22;1.50;;;;;;;42.49;15.60;98766.41;5056746;28;20037;-52
2022/08/07 11:02:41;;;;;;;2.50;1.20;;;;;;;42.84;15.48;98772.63;5074663;28;20016;-51
2022/08/07 11:05:22;;;;;;;1.60;1.42;;;;;;;42.66;15.27;98762.66;5056578;28;20094;-52
2022/08/07 11:08:06;;;;;;;3.63;1.60;;;;;;;42.38;15.83;98765.72;5074467;28;20031;-50
2022/08/07 11:10:56;;;;;;;1.92;1.50;;;;;;;42.21;15.52;98756.50;5074647;28;20406;-50
2022/08/07 11:13:37;;;;;;;4.10;1.70;;;;;;;41.63;16.19;98756.31;5056389;28;20052;-51
2022/08/07 11:16:27;;;;;;;4.47;1.60;;;;;;;41.69;16.45;98754.66;5074524;28;20118;-52
2022/08/07 11:19:34;;;;;;;4.72;1.85;;;;;;;41.97;16.14;98747.28;5056372;28;20027;-52
2022/08/07 11:22:24;;;;;;;4.78;1.55;;;;;;;42.19;16.10;98743.09;5074151;28;20050;-51
2022/08/07 11:25:13;;;;;;;5.60;2.05;;;;;;;42.06;15.78;98745.63;5074338;28;20025;-52
2022/08/07 11:27:48;;;;;;;6.32;1.67;;;;;;;41.68;16.34;98737.34;5056030;28;20409;-52
2022/08/07 11:30:17;;;;;;;5.68;1.70;;;;;;;41.70;16.51;98734.19;5056080;28;20021;-51
2022/08/07 11:32:50;;;;;;;5.43;1.50;;;;;;;41.69;16.57;98749.16;5056090;28;20027;-50
2022/08/07 11:35:51;;;;;;;5.30;1.80;;;;;;;41.85;16.03;98746.63;5074019;28;20095;-52
2022/08/07 11:38:36;;;;;;;10.60;2.15;;;;;;;41.40;16.92;98737.59;5055892;28;20033;-51
2022/08/07 11:41:15;;;;;;;1.88;1.25;;;;;;;41.67;16.42;98735.78;5055943;28;20039;-51
2022/08/07 11:44:09;;;;;;;5.43;1.40;;;;;;;41.80;16.10;98744.31;5056323;28;20811;-51
2022/08/07 11:47:05;;;;;;;7.95;1.95;;;;;;;41.65;16.36;98745.66;5053348;28;20039;-51
2022/08/07 11:49:55;;;;;;;6.20;1.70;;;;;;;41.74;16.44;98740.44;5055642;28;20033;-51
2022/08/07 11:53:15;;;;;;;6.55;1.60;;;;;;;41.58;16.60;98732.69;5055131;28;20044;-51
2022/08/07 11:55:59;;;;;;;3.53;1.35;;;;;;;41.41;16.53;98733.63;4992082;28;20034;-53
2022/08/07 11:58:39;;;;;;;5.15;1.60;;;;;;;41.42;16.56;98729.72;4992188;28;20182;-51
2022/08/07 12:01:34;;;;;;;10.18;2.45;;;;;;;41.29;17.01;98727.47;4992073;28;20046;-51
2022/08/07 12:04:31;;;;;;;4.38;1.45;;;;;;;41.50;16.57;98726.47;4968497;28;20137;-51
2022/08/07 12:07:15;;;;;;;8.23;1.90;;;;;;;41.99;16.29;98718.09;4972343;28;20453;-51